Airfield :
LOGIN :

Register | Disclaimer

   EN    FR    IT 

 










Legend :    VFR   Marginal VFR   IFR   Intensive IFR   Very Intensive IFR
Visi :
Ceiling :
>= 8 km
>= 3000ft
5 to 8 km
1000 to 3000 ft
1500m to 5 km
500 to 1000 ft
800 to 1500m
200 to 500 ft
< 800m
< 200 ft
Symbols :   Thunderstorms  Fog  Heavy snow  Heavy precipitations  Wind > 20 kt
SIGMETs :     Misc.  Thunderstorms  Icing  Turbulence  Mountain Waves  Volcanic Ashes






- Airport Elevation : 511 ft
- IATA code : LHA


EDTL - Lahr Schwarzwald

CURRENT METAR :
  • 011550Z 04008KT 010V080 7000 -RA BKN007 OVC008 02/01 Q1002

EXPIRED METARs :
  • 011520Z 36007KT 5000 -RA OVC006 02/01 Q1002
  • 011450Z 01006KT 5000 -RA OVC005 02/01 Q1002
  • 011420Z 02006KT 4700 -RA BR FEW005 OVC006 02/01 Q1002 RERA
  • 011350Z 01007KT 4600 BR SCT005 OVC006 02/01 Q1001
  • 011320Z 01007KT 5000 -RA OVC005 02/02 Q1002 RERA
  • 011250Z 01008KT 5000 BR OVC005 02/02 Q1002
  • 011220Z 36005KT 4500 -RA BR OVC004 02/01 Q1002
  • 011150Z 02005KT 3900 -RA BR OVC003 02/01 Q1002
  • 011120Z 03006KT 2700 -RA BR OVC002 01/01 Q1002

TAF TAF EDTL
Valid from the 01 at 15:00 until the 02 at 00:00 UTC


011400Z 0115/0124 01007KT 9999 BKN006
TEMPO 0115/0124 4000 -RASN BKN002
PROB30
TEMPO 0115/0124 1400 -SN



MET'MAP, your aeronautical weather chart ! - Copyright ORBIFLY December 2007 - Disclaimer

ORBIFLY MET'MAP TEAM :

Programming & Development : Alexandra Zaïnal
Original concept : Baudouin d'Aumeries
Technical & hardware support : Manuel Goepfert
Assistance : Marc-Olivier Méhu




SOURCES & CREDITS :

   NOAA